createdAt,value
2023-03-22T00:01:37.717Z,5.78
2023-03-22T00:04:04.672Z,4.95
2023-03-22T00:06:31.466Z,5.70
2023-03-22T00:08:58.207Z,5.50
2023-03-22T00:11:25.998Z,5.28
2023-03-22T00:13:53.655Z,4.93
2023-03-22T00:16:21.768Z,4.55
2023-03-22T00:18:48.652Z,4.10
2023-03-22T00:21:16.702Z,4.38
2023-03-22T00:23:44.327Z,4.18
2023-03-22T00:26:12.581Z,2.92
2023-03-22T00:28:39.836Z,2.83
2023-03-22T00:31:07.108Z,2.58
2023-03-22T00:33:34.064Z,2.63
2023-03-22T00:36:04.677Z,2.60
2023-03-22T00:38:42.404Z,2.50
2023-03-22T00:41:12.796Z,2.90
2023-03-22T00:43:39.609Z,2.35
2023-03-22T00:46:06.830Z,2.85
2023-03-22T00:48:33.755Z,2.90
2023-03-22T00:51:01.004Z,2.88
2023-03-22T00:53:29.154Z,2.53
2023-03-22T00:55:59.331Z,2.53
2023-03-22T00:58:26.074Z,3.65
2023-03-22T01:00:52.922Z,3.15
2023-03-22T01:03:21.920Z,3.00
2023-03-22T01:05:49.456Z,2.83
2023-03-22T01:08:17.898Z,3.22
2023-03-22T01:10:45.344Z,2.90
2023-03-22T01:13:12.880Z,2.65
2023-03-22T01:15:39.939Z,2.50
2023-03-22T01:18:07.622Z,2.55
2023-03-22T01:20:35.594Z,2.83
2023-03-22T01:23:02.421Z,2.63
2023-03-22T01:25:29.253Z,2.72
2023-03-22T01:27:56.032Z,2.53
2023-03-22T01:30:22.690Z,2.33
2023-03-22T01:32:49.570Z,2.50
2023-03-22T01:35:16.519Z,2.50
2023-03-22T01:37:43.317Z,2.78
2023-03-22T01:40:12.422Z,2.70
2023-03-22T01:42:39.355Z,2.80
2023-03-22T01:45:14.882Z,2.90
2023-03-22T01:47:56.005Z,2.65
2023-03-22T01:50:24.424Z,2.88
2023-03-22T01:52:52.156Z,2.63
2023-03-22T01:55:23.343Z,2.67
2023-03-22T01:57:51.545Z,2.40
2023-03-22T02:00:19.020Z,2.85
2023-03-22T02:02:49.203Z,2.63
2023-03-22T02:05:17.286Z,2.80
2023-03-22T02:07:44.816Z,3.05
2023-03-22T02:10:17.574Z,2.55
2023-03-22T02:12:58.409Z,2.65
2023-03-22T02:15:51.162Z,2.80
2023-03-22T02:18:27.054Z,2.88
2023-03-22T02:21:11.910Z,2.88
2023-03-22T02:23:50.526Z,2.63
2023-03-22T02:26:39.393Z,2.70
2023-03-22T02:29:17.818Z,2.67
2023-03-22T02:32:16.500Z,2.80
2023-03-22T02:34:46.321Z,2.63
2023-03-22T02:37:28.417Z,2.88
2023-03-22T02:40:13.896Z,2.40
2023-03-22T02:43:02.106Z,2.83
2023-03-22T02:45:50.630Z,2.60
2023-03-22T02:48:26.513Z,2.53
2023-03-22T02:51:00.403Z,2.45
2023-03-22T02:53:36.399Z,2.30
2023-03-22T02:56:13.450Z,2.80
2023-03-22T02:58:46.753Z,2.80
2023-03-22T03:01:29.111Z,2.88
2023-03-22T03:04:04.783Z,2.78
2023-03-22T03:06:35.823Z,2.55
2023-03-22T03:09:05.227Z,2.85
2023-03-22T03:11:32.572Z,2.50
2023-03-22T03:13:59.624Z,3.15
2023-03-22T03:16:29.400Z,2.75
2023-03-22T03:19:41.113Z,3.05
2023-03-22T03:22:33.442Z,2.80
2023-03-22T03:25:05.977Z,2.63
2023-03-22T03:27:40.679Z,3.47
2023-03-22T03:30:15.479Z,3.05
2023-03-22T03:32:56.450Z,3.03
2023-03-22T03:35:32.443Z,2.88
2023-03-22T03:38:21.291Z,2.78
2023-03-22T03:40:52.642Z,3.40
2023-03-22T03:43:20.713Z,3.03
2023-03-22T03:45:47.671Z,3.50
2023-03-22T03:48:24.114Z,3.58
2023-03-22T03:50:54.084Z,3.35
2023-03-22T03:53:20.860Z,3.70
2023-03-22T03:55:47.618Z,4.63
2023-03-22T03:58:16.178Z,4.15
2023-03-22T04:00:43.775Z,3.13
2023-03-22T04:03:10.626Z,3.97
2023-03-22T04:05:37.615Z,3.50
2023-03-22T04:08:04.402Z,3.65
2023-03-22T04:10:31.371Z,3.50
2023-03-22T04:12:58.097Z,3.55
2023-03-22T04:15:25.277Z,3.65
2023-03-22T04:17:54.080Z,3.95
2023-03-22T04:20:21.022Z,3.67
2023-03-22T04:22:49.082Z,3.60
2023-03-22T04:25:18.219Z,3.78
2023-03-22T04:27:50.933Z,3.40
2023-03-22T04:30:20.136Z,3.95
2023-03-22T04:32:48.876Z,3.60
2023-03-22T04:35:16.113Z,4.10
2023-03-22T04:37:43.281Z,3.58
2023-03-22T04:40:16.369Z,3.67
2023-03-22T04:42:44.262Z,3.80
2023-03-22T04:45:12.302Z,4.25
2023-03-22T04:47:39.172Z,3.85
2023-03-22T04:50:07.532Z,3.78
2023-03-22T04:52:34.251Z,3.70
2023-03-22T04:55:00.905Z,3.70
2023-03-22T04:57:27.664Z,3.70
2023-03-22T04:59:54.339Z,3.67
2023-03-22T05:02:21.207Z,4.03
2023-03-22T05:04:47.966Z,3.95
2023-03-22T05:07:14.685Z,3.80
2023-03-22T05:09:41.467Z,3.75
2023-03-22T05:12:08.191Z,3.75
2023-03-22T05:14:34.998Z,3.42
2023-03-22T05:17:01.840Z,3.70
2023-03-22T05:19:29.008Z,3.28
2023-03-22T05:21:58.613Z,3.70
2023-03-22T05:24:25.586Z,3.53
2023-03-22T05:26:53.957Z,3.70
2023-03-22T05:29:24.363Z,3.85
2023-03-22T05:31:51.178Z,3.47
2023-03-22T05:34:17.947Z,3.60
2023-03-22T05:36:44.773Z,4.43
2023-03-22T05:39:11.743Z,4.07
2023-03-22T05:41:38.426Z,3.35
2023-03-22T05:44:05.316Z,4.22
2023-03-22T05:46:32.103Z,3.47
2023-03-22T05:48:58.844Z,3.50
2023-03-22T05:51:25.640Z,3.97
2023-03-22T05:53:53.576Z,3.78
2023-03-22T05:56:24.403Z,4.10
2023-03-22T05:58:51.878Z,3.87
2023-03-22T06:01:20.461Z,4.07
2023-03-22T06:03:48.511Z,3.87
2023-03-22T06:06:15.878Z,4.00
2023-03-22T06:08:43.047Z,3.40
2023-03-22T06:11:10.687Z,3.60
2023-03-22T06:13:37.743Z,3.70
2023-03-22T06:16:05.580Z,3.80
2023-03-22T06:18:33.209Z,3.75
2023-03-22T06:21:00.523Z,4.03
2023-03-22T06:23:28.005Z,3.33
2023-03-22T06:25:54.919Z,3.53
2023-03-22T06:28:21.784Z,3.50
2023-03-22T06:30:48.599Z,3.95
2023-03-22T06:33:15.370Z,3.60
2023-03-22T06:35:42.191Z,3.77
2023-03-22T06:38:09.399Z,3.90
2023-03-22T06:40:36.151Z,3.83
2023-03-22T06:43:06.764Z,3.57
2023-03-22T06:45:33.871Z,4.18
2023-03-22T06:48:01.318Z,3.60
2023-03-22T06:50:29.245Z,3.53
2023-03-22T06:52:56.605Z,3.40
2023-03-22T06:55:24.096Z,3.78
2023-03-22T06:57:50.801Z,4.07
2023-03-22T07:00:17.970Z,3.30
2023-03-22T07:02:44.744Z,3.97
2023-03-22T07:05:11.568Z,3.22
2023-03-22T07:07:38.379Z,4.22
2023-03-22T07:10:07.771Z,3.55
2023-03-22T07:12:35.108Z,3.65
2023-03-22T07:15:02.588Z,3.90
2023-03-22T07:17:29.460Z,3.70
2023-03-22T07:19:56.464Z,3.55
2023-03-22T07:22:24.846Z,3.72
2023-03-22T07:24:57.673Z,3.90
2023-03-22T07:27:25.892Z,4.25
2023-03-22T07:29:52.710Z,3.75
2023-03-22T07:32:19.541Z,4.07
2023-03-22T07:34:46.421Z,4.35
2023-03-22T07:37:13.222Z,3.88
2023-03-22T07:39:40.150Z,3.47
2023-03-22T07:42:06.954Z,3.75
2023-03-22T07:44:33.736Z,3.45
2023-03-22T07:47:00.734Z,3.95
2023-03-22T07:49:27.575Z,3.88
2023-03-22T07:51:54.285Z,3.40
2023-03-22T07:54:33.076Z,3.13
2023-03-22T07:57:01.294Z,3.35
2023-03-22T07:59:28.188Z,3.35
2023-03-22T08:01:55.134Z,3.00
2023-03-22T08:04:22.552Z,3.65
2023-03-22T08:06:51.863Z,2.88
2023-03-22T08:09:18.633Z,3.03
2023-03-22T08:11:45.755Z,3.00
2023-03-22T08:14:12.450Z,2.83
2023-03-22T08:16:39.325Z,2.80
2023-03-22T08:19:06.709Z,3.30
2023-03-22T08:21:33.382Z,2.80
2023-03-22T08:24:00.037Z,3.05
2023-03-22T08:26:27.360Z,3.00
2023-03-22T08:28:54.101Z,2.88
2023-03-22T08:31:20.940Z,2.88
2023-03-22T08:33:48.018Z,2.55
2023-03-22T08:36:18.349Z,2.80
2023-03-22T08:38:45.413Z,2.50
2023-03-22T08:41:13.114Z,2.58
2023-03-22T08:43:39.978Z,3.03
2023-03-22T08:46:06.746Z,2.80
2023-03-22T08:48:35.779Z,2.42
2023-03-22T08:51:02.619Z,2.40
2023-03-22T08:53:29.599Z,2.40
2023-03-22T08:55:58.162Z,2.53
2023-03-22T08:58:24.992Z,2.50
2023-03-22T09:00:52.030Z,1.88
2023-03-22T09:03:18.917Z,2.33
2023-03-22T09:05:45.740Z,2.25
2023-03-22T09:08:19.151Z,2.30
2023-03-22T09:10:52.028Z,2.30
2023-03-22T09:13:19.273Z,2.40
2023-03-22T09:15:46.335Z,2.00
2023-03-22T09:18:13.621Z,2.20
2023-03-22T09:20:40.744Z,2.30
2023-03-22T09:23:07.738Z,2.22
2023-03-22T09:25:34.459Z,1.80
2023-03-22T09:28:01.391Z,1.90
2023-03-22T09:30:28.668Z,1.90
2023-03-22T09:32:55.606Z,1.77
2023-03-22T09:35:22.651Z,1.98
2023-03-22T09:37:49.575Z,2.05
2023-03-22T09:40:17.739Z,2.10
2023-03-22T09:42:48.024Z,1.63
2023-03-22T09:45:25.014Z,1.83
2023-03-22T09:47:54.826Z,1.55
2023-03-22T09:50:26.108Z,1.70
2023-03-22T09:52:53.719Z,1.45
2023-03-22T09:55:22.107Z,1.70
2023-03-22T09:58:01.166Z,1.48
2023-03-22T10:00:52.750Z,1.73
2023-03-22T10:03:19.538Z,1.40
2023-03-22T10:06:07.496Z,1.75
2023-03-22T10:08:52.934Z,1.30
2023-03-22T10:11:37.278Z,1.40
2023-03-22T10:14:18.948Z,1.30
2023-03-22T10:16:46.799Z,1.63
2023-03-22T10:19:20.827Z,1.00
2023-03-22T10:21:49.736Z,1.27
2023-03-22T10:24:26.476Z,1.27
2023-03-22T10:26:53.814Z,1.10
2023-03-22T10:29:23.480Z,1.27
2023-03-22T10:31:50.255Z,1.05
2023-03-22T10:34:28.028Z,1.25
2023-03-22T10:36:55.774Z,1.10
2023-03-22T10:39:33.624Z,1.10
2023-03-22T10:42:08.331Z,1.20
2023-03-22T10:44:48.597Z,0.93
2023-03-22T10:47:24.105Z,1.10
2023-03-22T10:49:55.083Z,1.30
2023-03-22T10:52:36.973Z,1.20
2023-03-22T10:55:08.719Z,1.05
2023-03-22T10:57:35.436Z,1.08
2023-03-22T11:00:09.733Z,1.17
2023-03-22T11:02:47.009Z,1.13
2023-03-22T11:05:24.219Z,0.88
2023-03-22T11:07:51.273Z,1.13
2023-03-22T11:10:27.582Z,1.25
2023-03-22T11:13:07.939Z,1.00
2023-03-22T11:15:38.883Z,1.27
2023-03-22T11:18:11.322Z,1.00
2023-03-22T11:20:42.008Z,1.02
2023-03-22T11:23:17.824Z,1.13
2023-03-22T11:25:48.076Z,1.45
2023-03-22T11:28:37.194Z,1.00
2023-03-22T11:31:08.557Z,1.05
2023-03-22T11:33:36.426Z,1.00
2023-03-22T11:36:16.055Z,0.90
2023-03-22T11:38:48.773Z,0.90
2023-03-22T11:41:28.162Z,1.20
2023-03-22T11:44:08.003Z,1.05
2023-03-22T11:46:36.379Z,1.15
2023-03-22T11:49:08.078Z,1.17
2023-03-22T11:51:37.779Z,1.15
2023-03-22T11:54:42.414Z,1.20
2023-03-22T11:57:19.243Z,1.20
2023-03-22T12:00:01.800Z,0.90
2023-03-22T12:02:32.534Z,1.10
2023-03-22T12:05:10.641Z,0.90
2023-03-22T12:07:41.268Z,1.35
2023-03-22T12:10:30.987Z,1.05
2023-03-22T12:13:03.353Z,1.08
2023-03-22T12:15:41.031Z,0.80
2023-03-22T12:18:27.530Z,0.85
2023-03-22T12:20:59.698Z,2.15
2023-03-22T12:23:29.537Z,1.40
2023-03-22T12:26:11.583Z,2.20
2023-03-22T12:28:43.322Z,1.70
2023-03-22T12:31:19.573Z,1.30
2023-03-22T12:33:53.400Z,1.17
2023-03-22T12:36:42.943Z,2.30
2023-03-22T12:39:27.755Z,2.40
2023-03-22T12:42:02.401Z,1.90
2023-03-22T12:44:42.320Z,1.20
2023-03-22T12:47:34.837Z,1.02
2023-03-22T12:50:18.348Z,0.98
2023-03-22T12:52:50.663Z,1.23
2023-03-22T12:55:32.236Z,1.23
2023-03-22T12:57:59.676Z,1.42
2023-03-22T13:00:44.213Z,1.30
2023-03-22T13:03:19.966Z,0.63
2023-03-22T13:05:50.333Z,1.10
2023-03-22T13:08:21.893Z,0.80
2023-03-22T13:10:59.537Z,1.08
2023-03-22T13:13:27.701Z,0.95
2023-03-22T13:15:59.674Z,0.80
2023-03-22T13:18:49.909Z,1.13
2023-03-22T13:21:22.338Z,1.00
2023-03-22T13:24:10.314Z,1.30
2023-03-22T13:26:47.815Z,1.00
2023-03-22T13:29:34.315Z,0.95
2023-03-22T13:32:04.452Z,0.82
2023-03-22T13:34:37.578Z,0.90
2023-03-22T13:37:22.728Z,1.13
2023-03-22T13:39:54.157Z,1.95
2023-03-22T13:42:26.641Z,1.00
2023-03-22T13:45:02.491Z,0.85
2023-03-22T13:47:45.390Z,0.95
2023-03-22T13:50:31.470Z,0.88
2023-03-22T13:53:07.624Z,0.80
2023-03-22T13:55:41.544Z,0.93
2023-03-22T13:58:36.187Z,0.80
2023-03-22T14:01:13.553Z,0.80
2023-03-22T14:03:45.576Z,1.00
2023-03-22T14:06:18.946Z,1.00
2023-03-22T14:08:48.456Z,1.05
2023-03-22T14:11:23.817Z,0.70
2023-03-22T14:13:56.235Z,1.30
2023-03-22T14:16:38.104Z,0.95
2023-03-22T14:19:07.141Z,0.93
2023-03-22T14:21:39.821Z,0.65
